sensor_id;sensor_type;location;lat;lon;timestamp;pressure;altitude;pressure_sealevel;temperature;humidity
40992;BME280;29633;49.168;9.848;2023-06-22T00:02:17;97012.03;;;24.90;63.66
40992;BME280;29633;49.168;9.848;2023-06-22T00:04:43;97004.25;;;24.82;63.97
40992;BME280;29633;49.168;9.848;2023-06-22T00:07:08;97001.00;;;24.80;63.76
40992;BME280;29633;49.168;9.848;2023-06-22T00:09:34;96980.63;;;24.81;64.03
40992;BME280;29633;49.168;9.848;2023-06-22T00:12:01;96961.44;;;24.79;63.99
40992;BME280;29633;49.168;9.848;2023-06-22T00:14:26;96955.53;;;24.77;64.08
40992;BME280;29633;49.168;9.848;2023-06-22T00:16:52;96948.81;;;24.74;64.04
40992;BME280;29633;49.168;9.848;2023-06-22T00:19:22;96937.78;;;24.71;63.91
40992;BME280;29633;49.168;9.848;2023-06-22T00:21:49;96933.94;;;24.67;63.85
40992;BME280;29633;49.168;9.848;2023-06-22T00:24:21;96937.22;;;24.62;63.96
40992;BME280;29633;49.168;9.848;2023-06-22T00:26:50;96934.97;;;24.59;64.14
40992;BME280;29633;49.168;9.848;2023-06-22T00:29:16;96926.41;;;24.57;63.90
40992;BME280;29633;49.168;9.848;2023-06-22T00:31:42;96915.22;;;24.55;64.18
40992;BME280;29633;49.168;9.848;2023-06-22T00:34:08;96912.97;;;24.52;64.24
40992;BME280;29633;49.168;9.848;2023-06-22T00:36:35;96913.78;;;24.53;64.13
40992;BME280;29633;49.168;9.848;2023-06-22T00:39:01;96901.16;;;24.48;64.23
40992;BME280;29633;49.168;9.848;2023-06-22T00:41:27;96906.06;;;24.44;64.07
40992;BME280;29633;49.168;9.848;2023-06-22T00:43:54;96918.69;;;24.42;64.28
40992;BME280;29633;49.168;9.848;2023-06-22T00:46:21;96906.06;;;24.44;64.18
40992;BME280;29633;49.168;9.848;2023-06-22T00:48:48;96901.97;;;24.42;64.24
40992;BME280;29633;49.168;9.848;2023-06-22T00:51:14;96905.44;;;24.36;64.31
40992;BME280;29633;49.168;9.848;2023-06-22T00:53:40;96907.69;;;24.32;64.39
40992;BME280;29633;49.168;9.848;2023-06-22T00:56:06;96898.31;;;24.30;64.41
40992;BME280;29633;49.168;9.848;2023-06-22T00:58:35;96896.69;;;24.29;64.26
40992;BME280;29633;49.168;9.848;2023-06-22T01:01:03;96905.66;;;24.28;64.18
40992;BME280;29633;49.168;9.848;2023-06-22T01:03:29;96896.28;;;24.25;64.24
40992;BME280;29633;49.168;9.848;2023-06-22T01:05:58;96911.97;;;24.20;64.55
40992;BME280;29633;49.168;9.848;2023-06-22T01:08:51;96917.69;;;24.17;64.56
40992;BME280;29633;49.168;9.848;2023-06-22T01:11:25;96920.34;;;24.17;64.37
40992;BME280;29633;49.168;9.848;2023-06-22T01:13:58;96921.97;;;24.18;64.42
40992;BME280;29633;49.168;9.848;2023-06-22T01:16:28;96932.16;;;24.15;64.47
40992;BME280;29633;49.168;9.848;2023-06-22T01:18:58;96939.66;;;24.11;64.41
40992;BME280;29633;49.168;9.848;2023-06-22T01:21:27;96942.50;;;24.10;64.39
40992;BME280;29633;49.168;9.848;2023-06-22T01:24:16;96963.50;;;24.11;64.43
40992;BME280;29633;49.168;9.848;2023-06-22T01:29:23;96951.09;;;24.12;64.59
40992;BME280;29633;49.168;9.848;2023-06-22T01:31:49;96959.03;;;24.12;64.40
40992;BME280;29633;49.168;9.848;2023-06-22T01:34:18;96975.75;;;24.12;64.52
40992;BME280;29633;49.168;9.848;2023-06-22T01:36:45;96955.56;;;24.11;64.44
40992;BME280;29633;49.168;9.848;2023-06-22T01:39:11;96996.94;;;24.12;64.35
40992;BME280;29633;49.168;9.848;2023-06-22T01:41:37;97025.44;;;24.10;64.23
40992;BME280;29633;49.168;9.848;2023-06-22T01:44:08;97039.72;;;24.09;64.60
40992;BME280;29633;49.168;9.848;2023-06-22T01:46:34;97032.38;;;24.11;64.45
40992;BME280;29633;49.168;9.848;2023-06-22T01:49:04;97030.75;;;24.10;64.62
40992;BME280;29633;49.168;9.848;2023-06-22T01:51:30;97034.22;;;24.11;64.74
40992;BME280;29633;49.168;9.848;2023-06-22T01:53:55;97040.50;;;24.10;64.69
40992;BME280;29633;49.168;9.848;2023-06-22T01:56:21;97022.19;;;24.08;64.75
40992;BME280;29633;49.168;9.848;2023-06-22T01:58:57;97016.50;;;24.11;64.76
40992;BME280;29633;49.168;9.848;2023-06-22T02:01:28;97021.59;;;24.13;64.88
40992;BME280;29633;49.168;9.848;2023-06-22T02:04:09;97022.41;;;24.13;64.88
40992;BME280;29633;49.168;9.848;2023-06-22T02:06:38;97020.59;;;24.14;64.66
40992;BME280;29633;49.168;9.848;2023-06-22T02:09:11;97017.75;;;24.15;64.87
40992;BME280;29633;49.168;9.848;2023-06-22T02:11:39;97011.63;;;24.15;64.83
40992;BME280;29633;49.168;9.848;2023-06-22T02:14:06;97010.63;;;24.16;64.94
40992;BME280;29633;49.168;9.848;2023-06-22T02:16:32;97006.94;;;24.17;64.78
40992;BME280;29633;49.168;9.848;2023-06-22T02:18:58;97005.09;;;24.17;65.09
40992;BME280;29633;49.168;9.848;2023-06-22T02:21:29;97002.47;;;24.17;64.82
40992;BME280;29633;49.168;9.848;2023-06-22T02:23:54;97002.47;;;24.17;65.01
40992;BME280;29633;49.168;9.848;2023-06-22T02:26:20;97001.44;;;24.18;65.00
40992;BME280;29633;49.168;9.848;2023-06-22T02:28:46;96996.97;;;24.19;64.73
40992;BME280;29633;49.168;9.848;2023-06-22T02:31:11;96992.50;;;24.19;64.96
40992;BME280;29633;49.168;9.848;2023-06-22T02:33:37;96997.78;;;24.19;64.91
40992;BME280;29633;49.168;9.848;2023-06-22T02:36:03;96989.03;;;24.19;65.05
40992;BME280;29633;49.168;9.848;2023-06-22T02:38:31;96987.19;;;24.19;64.80
40992;BME280;29633;49.168;9.848;2023-06-22T02:40:58;96994.09;;;24.20;65.07
40992;BME280;29633;49.168;9.848;2023-06-22T02:43:24;96994.31;;;24.19;65.12
40992;BME280;29633;49.168;9.848;2023-06-22T02:45:50;96990.44;;;24.21;65.19
40992;BME280;29633;49.168;9.848;2023-06-22T02:48:16;96969.25;;;24.21;65.14
40992;BME280;29633;49.168;9.848;2023-06-22T02:50:41;96969.25;;;24.21;65.00
40992;BME280;29633;49.168;9.848;2023-06-22T02:53:07;96977.41;;;24.20;65.34
40992;BME280;29633;49.168;9.848;2023-06-22T02:55:32;96976.59;;;24.19;65.10
40992;BME280;29633;49.168;9.848;2023-06-22T02:57:58;96973.13;;;24.19;65.00
40992;BME280;29633;49.168;9.848;2023-06-22T03:00:25;96970.66;;;24.17;65.20
40992;BME280;29633;49.168;9.848;2023-06-22T03:02:56;96968.00;;;24.17;65.09
40992;BME280;29633;49.168;9.848;2023-06-22T03:05:22;96954.56;;;24.19;65.27
40992;BME280;29633;49.168;9.848;2023-06-22T03:07:48;96947.22;;;24.21;65.35
40992;BME280;29633;49.168;9.848;2023-06-22T03:10:14;96945.22;;;24.23;65.30
40992;BME280;29633;49.168;9.848;2023-06-22T03:12:41;96943.97;;;24.25;65.12
40992;BME280;29633;49.168;9.848;2023-06-22T03:15:08;96943.16;;;24.25;65.27
40992;BME280;29633;49.168;9.848;2023-06-22T03:17:35;96936.22;;;24.24;65.06
40992;BME280;29633;49.168;9.848;2023-06-22T03:20:01;96943.97;;;24.25;65.11
40992;BME280;29633;49.168;9.848;2023-06-22T03:22:35;96941.13;;;24.27;65.04
40992;BME280;29633;49.168;9.848;2023-06-22T03:25:01;96928.91;;;24.26;65.21
40992;BME280;29633;49.168;9.848;2023-06-22T03:27:27;96920.94;;;24.26;65.31
40992;BME280;29633;49.168;9.848;2023-06-22T03:29:52;96939.50;;;24.26;65.48
40992;BME280;29633;49.168;9.848;2023-06-22T03:32:18;96937.03;;;24.24;65.18
40992;BME280;29633;49.168;9.848;2023-06-22T03:34:44;96946.63;;;24.25;65.39
40992;BME280;29633;49.168;9.848;2023-06-22T03:37:13;96932.56;;;24.25;65.06
40992;BME280;29633;49.168;9.848;2023-06-22T03:39:41;96923.59;;;24.26;65.31
40992;BME280;29633;49.168;9.848;2023-06-22T03:42:06;96924.41;;;24.26;65.27
40992;BME280;29633;49.168;9.848;2023-06-22T03:44:32;96933.19;;;24.27;65.50
40992;BME280;29633;49.168;9.848;2023-06-22T03:46:58;96924.41;;;24.26;65.15
40992;BME280;29633;49.168;9.848;2023-06-22T03:49:24;96915.44;;;24.27;65.45
40992;BME280;29633;49.168;9.848;2023-06-22T03:51:49;96917.06;;;24.28;65.67
40992;BME280;29633;49.168;9.848;2023-06-22T03:54:15;96918.72;;;24.29;65.35
40992;BME280;29633;49.168;9.848;2023-06-22T03:56:41;96921.16;;;24.31;65.50
40992;BME280;29633;49.168;9.848;2023-06-22T03:59:06;96936.84;;;24.32;65.40
40992;BME280;29633;49.168;9.848;2023-06-22T04:01:32;96939.50;;;24.32;65.43
40992;BME280;29633;49.168;9.848;2023-06-22T04:03:57;96919.94;;;24.33;65.69
40992;BME280;29633;49.168;9.848;2023-06-22T04:06:23;96916.25;;;24.34;65.42
40992;BME280;29633;49.168;9.848;2023-06-22T04:08:49;96926.88;;;24.34;65.50
40992;BME280;29633;49.168;9.848;2023-06-22T04:11:17;96940.72;;;24.36;65.50
40992;BME280;29633;49.168;9.848;2023-06-22T04:13:43;96938.66;;;24.38;65.46
40992;BME280;29633;49.168;9.848;2023-06-22T04:16:09;96917.84;;;24.42;65.51
40992;BME280;29633;49.168;9.848;2023-06-22T04:18:34;96905.00;;;24.45;65.50
40992;BME280;29633;49.168;9.848;2023-06-22T04:21:01;96920.13;;;24.45;65.53
40992;BME280;29633;49.168;9.848;2023-06-22T04:23:27;96934.97;;;24.46;65.55
40992;BME280;29633;49.168;9.848;2023-06-22T04:25:52;96934.16;;;24.45;65.50
40992;BME280;29633;49.168;9.848;2023-06-22T04:28:18;96917.88;;;24.48;65.63
40992;BME280;29633;49.168;9.848;2023-06-22T04:30:44;96900.72;;;24.51;65.68
40992;BME280;29633;49.168;9.848;2023-06-22T04:33:14;96901.31;;;24.53;65.46
40992;BME280;29633;49.168;9.848;2023-06-22T04:35:39;96899.91;;;24.57;65.55
40992;BME280;29633;49.168;9.848;2023-06-22T04:38:08;96909.28;;;24.60;65.74
40992;BME280;29633;49.168;9.848;2023-06-22T04:40:33;96912.53;;;24.62;65.76
40992;BME280;29633;49.168;9.848;2023-06-22T04:42:59;96903.97;;;24.66;65.37
40992;BME280;29633;49.168;9.848;2023-06-22T04:45:28;96892.13;;;24.69;65.42
40992;BME280;29633;49.168;9.848;2023-06-22T04:47:55;96886.41;;;24.72;65.40
40992;BME280;29633;49.168;9.848;2023-06-22T04:50:20;96889.44;;;24.75;65.49
40992;BME280;29633;49.168;9.848;2023-06-22T04:52:47;96895.13;;;24.79;65.60
40992;BME280;29633;49.168;9.848;2023-06-22T04:55:14;96913.28;;;24.82;65.66
40992;BME280;29633;49.168;9.848;2023-06-22T04:57:47;96895.38;;;24.84;65.54
40992;BME280;29633;49.168;9.848;2023-06-22T05:00:18;96890.22;;;24.89;65.59
40992;BME280;29633;49.168;9.848;2023-06-22T05:02:45;96879.22;;;24.92;65.72
40992;BME280;29633;49.168;9.848;2023-06-22T05:05:12;96875.34;;;24.94;65.79
40992;BME280;29633;49.168;9.848;2023-06-22T05:07:45;96869.41;;;24.99;65.63
40992;BME280;29633;49.168;9.848;2023-06-22T05:10:13;96873.47;;;25.02;65.55
40992;BME280;29633;49.168;9.848;2023-06-22T05:12:46;96880.56;;;25.08;65.56
40992;BME280;29633;49.168;9.848;2023-06-22T05:15:12;96886.88;;;25.13;65.66
40992;BME280;29633;49.168;9.848;2023-06-22T05:17:38;96867.06;;;25.16;65.89
40992;BME280;29633;49.168;9.848;2023-06-22T05:20:11;96864.59;;;25.21;65.90
40992;BME280;29633;49.168;9.848;2023-06-22T05:22:37;96862.34;;;25.24;65.77
40992;BME280;29633;49.168;9.848;2023-06-22T05:25:02;96867.81;;;25.29;65.82
40992;BME280;29633;49.168;9.848;2023-06-22T05:27:28;96868.00;;;25.34;65.82
40992;BME280;29633;49.168;9.848;2023-06-22T05:29:54;96873.47;;;25.39;65.79
40992;BME280;29633;49.168;9.848;2023-06-22T05:32:19;96868.94;;;25.46;65.76
40992;BME280;29633;49.168;9.848;2023-06-22T05:34:45;96872.59;;;25.52;65.92
40992;BME280;29633;49.168;9.848;2023-06-22T05:37:11;96874.63;;;25.57;65.76
40992;BME280;29633;49.168;9.848;2023-06-22T05:39:38;96872.13;;;25.62;65.97
40992;BME280;29633;49.168;9.848;2023-06-22T05:42:05;96880.28;;;25.67;66.14
40992;BME280;29633;49.168;9.848;2023-06-22T05:44:31;96876.97;;;25.71;65.58
40992;BME280;29633;49.168;9.848;2023-06-22T05:46:57;96877.94;;;25.77;65.77
40992;BME280;29633;49.168;9.848;2023-06-22T05:49:23;96874.41;;;25.83;65.90
40992;BME280;29633;49.168;9.848;2023-06-22T05:51:50;96870.09;;;25.88;65.75
40992;BME280;29633;49.168;9.848;2023-06-22T05:54:16;96868.41;;;25.94;65.71
40992;BME280;29633;49.168;9.848;2023-06-22T05:56:43;96857.94;;;25.99;65.82
40992;BME280;29633;49.168;9.848;2023-06-22T05:59:08;96855.03;;;26.07;65.86
40992;BME280;29633;49.168;9.848;2023-06-22T06:01:34;96848.00;;;26.13;65.70
40992;BME280;29633;49.168;9.848;2023-06-22T06:04:02;96847.97;;;26.19;65.83
40992;BME280;29633;49.168;9.848;2023-06-22T06:06:29;96851.59;;;26.25;65.76
40992;BME280;29633;49.168;9.848;2023-06-22T06:08:55;96855.22;;;26.30;65.84
40992;BME280;29633;49.168;9.848;2023-06-22T06:11:21;96852.72;;;26.35;65.72
40992;BME280;29633;49.168;9.848;2023-06-22T06:13:47;96857.16;;;26.41;65.80
40992;BME280;29633;49.168;9.848;2023-06-22T06:16:13;96849.34;;;26.47;65.98
40992;BME280;29633;49.168;9.848;2023-06-22T06:18:38;96854.78;;;26.52;65.94
40992;BME280;29633;49.168;9.848;2023-06-22T06:21:04;96851.03;;;26.59;65.89
40992;BME280;29633;49.168;9.848;2023-06-22T06:23:30;96855.94;;;26.62;65.84
40992;BME280;29633;49.168;9.848;2023-06-22T06:25:58;96857.69;;;26.68;65.94
40992;BME280;29633;49.168;9.848;2023-06-22T06:28:24;96862.09;;;26.74;65.79
40992;BME280;29633;49.168;9.848;2023-06-22T06:30:50;96854.28;;;26.79;65.83
40992;BME280;29633;49.168;9.848;2023-06-22T06:33:17;96845.69;;;26.84;65.81
40992;BME280;29633;49.168;9.848;2023-06-22T06:35:43;96852.75;;;26.90;65.90
40992;BME280;29633;49.168;9.848;2023-06-22T06:38:08;96848.38;;;26.96;65.79
40992;BME280;29633;49.168;9.848;2023-06-22T06:40:34;96843.19;;;27.01;65.77
40992;BME280;29633;49.168;9.848;2023-06-22T06:42:59;96831.66;;;27.07;65.82
40992;BME280;29633;49.168;9.848;2023-06-22T06:45:25;96836.88;;;27.13;65.60
40992;BME280;29633;49.168;9.848;2023-06-22T06:47:52;96835.53;;;27.22;65.75
40992;BME280;29633;49.168;9.848;2023-06-22T06:50:18;96828.72;;;27.26;65.93
40992;BME280;29633;49.168;9.848;2023-06-22T06:52:44;96833.81;;;27.28;65.84
40992;BME280;29633;49.168;9.848;2023-06-22T06:55:10;96829.91;;;27.30;65.58
40992;BME280;29633;49.168;9.848;2023-06-22T06:57:38;96829.44;;;27.33;65.66
40992;BME280;29633;49.168;9.848;2023-06-22T07:00:13;96819.72;;;27.39;65.57
40992;BME280;29633;49.168;9.848;2023-06-22T07:02:41;96810.03;;;27.45;65.81
40992;BME280;29633;49.168;9.848;2023-06-22T07:05:08;96814.72;;;27.49;65.64
40992;BME280;29633;49.168;9.848;2023-06-22T07:07:34;96808.09;;;27.52;65.66
40992;BME280;29633;49.168;9.848;2023-06-22T07:10:02;96810.66;;;27.58;65.60
40992;BME280;29633;49.168;9.848;2023-06-22T07:12:28;96817.50;;;27.66;65.66
40992;BME280;29633;49.168;9.848;2023-06-22T07:15:05;96819.84;;;27.74;65.44
40992;BME280;29633;49.168;9.848;2023-06-22T07:17:33;96817.88;;;27.81;65.52
40992;BME280;29633;49.168;9.848;2023-06-22T07:19:59;96817.53;;;27.89;65.20
40992;BME280;29633;49.168;9.848;2023-06-22T07:22:25;96831.31;;;27.98;65.58
40992;BME280;29633;49.168;9.848;2023-06-22T07:24:50;96823.78;;;28.06;65.27
40992;BME280;29633;49.168;9.848;2023-06-22T07:27:16;96818.94;;;28.15;65.56
40992;BME280;29633;49.168;9.848;2023-06-22T07:29:45;96819.41;;;28.23;65.59
40992;BME280;29633;49.168;9.848;2023-06-22T07:32:11;96822.53;;;28.32;65.51
40992;BME280;29633;49.168;9.848;2023-06-22T07:34:36;96818.13;;;28.38;65.23
40992;BME280;29633;49.168;9.848;2023-06-22T07:37:02;96823.56;;;28.43;65.30
40992;BME280;29633;49.168;9.848;2023-06-22T07:39:28;96819.16;;;28.48;65.21
40992;BME280;29633;49.168;9.848;2023-06-22T07:41:54;96819.00;;;28.55;65.20
40992;BME280;29633;49.168;9.848;2023-06-22T07:44:23;96813.78;;;28.60;65.11
40992;BME280;29633;49.168;9.848;2023-06-22T07:46:49;96816.31;;;28.66;65.20
40992;BME280;29633;49.168;9.848;2023-06-22T07:49:14;96807.41;;;28.72;64.83
40992;BME280;29633;49.168;9.848;2023-06-22T07:51:40;96803.00;;;28.78;64.46
40992;BME280;29633;49.168;9.848;2023-06-22T07:54:05;96803.09;;;28.83;64.88
40992;BME280;29633;49.168;9.848;2023-06-22T07:56:31;96802.13;;;28.89;64.56
40992;BME280;29633;49.168;9.848;2023-06-22T07:58:58;96797.94;;;28.93;64.56
40992;BME280;29633;49.168;9.848;2023-06-22T08:01:26;96797.00;;;28.99;64.87
40992;BME280;29633;49.168;9.848;2023-06-22T08:03:51;96794.44;;;29.04;64.59
40992;BME280;29633;49.168;9.848;2023-06-22T08:06:17;96785.44;;;29.10;64.75
40992;BME280;29633;49.168;9.848;2023-06-22T08:08:43;96782.97;;;29.20;64.58
40992;BME280;29633;49.168;9.848;2023-06-22T08:11:09;96788.97;;;29.27;64.21
40992;BME280;29633;49.168;9.848;2023-06-22T08:13:37;96780.59;;;29.36;64.30
40992;BME280;29633;49.168;9.848;2023-06-22T08:16:03;96783.91;;;29.43;64.61
40992;BME280;29633;49.168;9.848;2023-06-22T08:18:28;96772.50;;;29.47;64.25
40992;BME280;29633;49.168;9.848;2023-06-22T08:20:54;96760.84;;;29.53;64.26
40992;BME280;29633;49.168;9.848;2023-06-22T08:23:20;96766.59;;;29.62;64.14
40992;BME280;29633;49.168;9.848;2023-06-22T08:25:48;96764.56;;;29.69;63.74
40992;BME280;29633;49.168;9.848;2023-06-22T08:28:15;96748.38;;;29.75;64.29
40992;BME280;29633;49.168;9.848;2023-06-22T08:30:41;96749.00;;;29.83;63.86
40992;BME280;29633;49.168;9.848;2023-06-22T08:33:07;96747.00;;;29.90;63.92
40992;BME280;29633;49.168;9.848;2023-06-22T08:35:32;96746.59;;;29.98;63.80
40992;BME280;29633;49.168;9.848;2023-06-22T08:38:00;96742.69;;;30.05;63.92
40992;BME280;29633;49.168;9.848;2023-06-22T08:40:27;96744.59;;;30.10;63.59
40992;BME280;29633;49.168;9.848;2023-06-22T08:42:54;96742.81;;;30.15;63.64
40992;BME280;29633;49.168;9.848;2023-06-22T08:45:20;96741.81;;;30.21;63.44
40992;BME280;29633;49.168;9.848;2023-06-22T08:47:46;96739.78;;;30.28;63.24
40992;BME280;29633;49.168;9.848;2023-06-22T08:50:12;96736.91;;;30.35;63.38
40992;BME280;29633;49.168;9.848;2023-06-22T08:52:39;96740.47;;;30.41;63.50
40992;BME280;29633;49.168;9.848;2023-06-22T08:55:07;96739.50;;;30.47;63.12
40992;BME280;29633;49.168;9.848;2023-06-22T08:57:34;96748.72;;;30.56;63.35
40992;BME280;29633;49.168;9.848;2023-06-22T08:59:59;96757.34;;;30.63;63.29
40992;BME280;29633;49.168;9.848;2023-06-22T09:02:26;96766.81;;;30.70;63.09
40992;BME280;29633;49.168;9.848;2023-06-22T09:04:55;96774.13;;;30.80;62.94
40992;BME280;29633;49.168;9.848;2023-06-22T09:07:22;96780.09;;;30.87;62.90
40992;BME280;29633;49.168;9.848;2023-06-22T09:09:49;96780.81;;;30.99;63.02
40992;BME280;29633;49.168;9.848;2023-06-22T09:12:14;96790.00;;;31.08;62.97
40992;BME280;29633;49.168;9.848;2023-06-22T09:14:40;96788.22;;;31.19;62.66
40992;BME280;29633;49.168;9.848;2023-06-22T09:17:06;96786.22;;;31.31;62.84
40992;BME280;29633;49.168;9.848;2023-06-22T09:19:31;96783.63;;;31.41;62.77
40992;BME280;29633;49.168;9.848;2023-06-22T09:21:57;96776.75;;;31.50;62.51
40992;BME280;29633;49.168;9.848;2023-06-22T09:24:23;96784.63;;;31.62;62.55
40992;BME280;29633;49.168;9.848;2023-06-22T09:26:48;96782.06;;;31.72;62.47
40992;BME280;29633;49.168;9.848;2023-06-22T09:29:14;96774.88;;;31.83;62.23
40992;BME280;29633;49.168;9.848;2023-06-22T09:31:40;96772.50;;;31.91;62.60
40992;BME280;29633;49.168;9.848;2023-06-22T09:34:06;96771.50;;;32.02;62.24
40992;BME280;29633;49.168;9.848;2023-06-22T09:36:32;96771.59;;;32.07;62.34
40992;BME280;29633;49.168;9.848;2023-06-22T09:38:57;96758.72;;;32.09;62.45
40992;BME280;29633;49.168;9.848;2023-06-22T09:41:24;96753.09;;;32.16;62.08
40992;BME280;29633;49.168;9.848;2023-06-22T09:43:50;96749.94;;;32.24;62.02
40992;BME280;29633;49.168;9.848;2023-06-22T09:46:16;96740.06;;;32.30;62.26
40992;BME280;29633;49.168;9.848;2023-06-22T09:48:42;96739.53;;;32.38;61.84
40992;BME280;29633;49.168;9.848;2023-06-22T09:51:08;96734.19;;;32.43;62.24
40992;BME280;29633;49.168;9.848;2023-06-22T09:53:33;96738.00;;;32.52;62.09
40992;BME280;29633;49.168;9.848;2023-06-22T09:56:01;96737.50;;;32.60;61.94
40992;BME280;29633;49.168;9.848;2023-06-22T09:58:27;96745.88;;;32.68;61.82
40992;BME280;29633;49.168;9.848;2023-06-22T10:00:53;96745.38;;;32.77;61.85
40992;BME280;29633;49.168;9.848;2023-06-22T10:03:20;96738.94;;;32.88;61.90
40992;BME280;29633;49.168;9.848;2023-06-22T10:05:46;96740.31;;;32.95;61.51
40992;BME280;29633;49.168;9.848;2023-06-22T10:08:11;96744.06;;;32.99;61.62
40992;BME280;29633;49.168;9.848;2023-06-22T10:10:37;96742.44;;;33.03;61.45
40992;BME280;29633;49.168;9.848;2023-06-22T10:13:08;96744.66;;;33.11;61.40
40992;BME280;29633;49.168;9.848;2023-06-22T10:15:37;96757.84;;;33.23;61.30
40992;BME280;29633;49.168;9.848;2023-06-22T10:18:03;96771.00;;;33.30;61.11
40992;BME280;29633;49.168;9.848;2023-06-22T10:20:29;96780.44;;;33.37;61.14
40992;BME280;29633;49.168;9.848;2023-06-22T10:22:55;96765.91;;;33.38;61.04
40992;BME280;29633;49.168;9.848;2023-06-22T10:25:21;96745.22;;;33.44;61.14
40992;BME280;29633;49.168;9.848;2023-06-22T10:27:47;96743.31;;;33.54;61.05
40992;BME280;29633;49.168;9.848;2023-06-22T10:30:13;96740.41;;;33.66;61.12
40992;BME280;29633;49.168;9.848;2023-06-22T10:32:39;96731.81;;;33.74;60.80
40992;BME280;29633;49.168;9.848;2023-06-22T10:35:05;96733.94;;;33.82;60.84
40992;BME280;29633;49.168;9.848;2023-06-22T10:37:31;96746.56;;;33.92;60.43
40992;BME280;29633;49.168;9.848;2023-06-22T10:39:57;96744.94;;;33.96;60.51
40992;BME280;29633;49.168;9.848;2023-06-22T10:42:23;96738.50;;;33.97;60.66
40992;BME280;29633;49.168;9.848;2023-06-22T10:44:49;96733.34;;;34.05;60.55
40992;BME280;29633;49.168;9.848;2023-06-22T10:47:14;96729.56;;;34.17;60.31
40992;BME280;29633;49.168;9.848;2023-06-22T10:49:40;96728.19;;;34.29;60.29
40992;BME280;29633;49.168;9.848;2023-06-22T10:52:07;96725.19;;;34.41;60.13
40992;BME280;29633;49.168;9.848;2023-06-22T10:54:34;96718.16;;;34.50;60.21
40992;BME280;29633;49.168;9.848;2023-06-22T10:57:01;96722.94;;;34.63;59.68
40992;BME280;29633;49.168;9.848;2023-06-22T10:59:26;96721.06;;;34.69;59.48
40992;BME280;29633;49.168;9.848;2023-06-22T11:01:53;96708.66;;;34.73;59.52
40992;BME280;29633;49.168;9.848;2023-06-22T11:04:18;96700.25;;;34.79;59.56
40992;BME280;29633;49.168;9.848;2023-06-22T11:06:44;96696.97;;;34.87;59.44
40992;BME280;29633;49.168;9.848;2023-06-22T11:09:10;96690.97;;;34.95;59.25
40992;BME280;29633;49.168;9.848;2023-06-22T11:11:35;96671.00;;;35.01;59.27
40992;BME280;29633;49.168;9.848;2023-06-22T11:14:01;96648.88;;;35.04;59.31
40992;BME280;29633;49.168;9.848;2023-06-22T11:16:27;96640.25;;;35.13;59.23
40992;BME280;29633;49.168;9.848;2023-06-22T11:18:52;96642.03;;;35.22;59.08
40992;BME280;29633;49.168;9.848;2023-06-22T11:21:18;96647.09;;;35.29;58.91
40992;BME280;29633;49.168;9.848;2023-06-22T11:23:44;96655.94;;;35.34;58.92
40992;BME280;29633;49.168;9.848;2023-06-22T11:26:10;96665.06;;;35.38;58.93
40992;BME280;29633;49.168;9.848;2023-06-22T11:28:36;96666.34;;;35.46;58.49
40992;BME280;29633;49.168;9.848;2023-06-22T11:31:01;96663.84;;;35.54;58.48
40992;BME280;29633;49.168;9.848;2023-06-22T11:33:27;96652.47;;;35.58;58.33
40992;BME280;29633;49.168;9.848;2023-06-22T11:35:53;96654.06;;;35.64;58.21
40992;BME280;29633;49.168;9.848;2023-06-22T11:38:18;96638.91;;;35.68;58.31
40992;BME280;29633;49.168;9.848;2023-06-22T11:40:44;96643.41;;;35.77;57.94
40992;BME280;29633;49.168;9.848;2023-06-22T11:43:10;96631.97;;;35.85;58.12
40992;BME280;29633;49.168;9.848;2023-06-22T11:45:35;96624.09;;;35.89;58.17
40992;BME280;29633;49.168;9.848;2023-06-22T11:48:01;96621.63;;;35.92;57.77
40992;BME280;29633;49.168;9.848;2023-06-22T11:50:27;96618.38;;;35.95;58.01
40992;BME280;29633;49.168;9.848;2023-06-22T11:52:55;96622.13;;;35.99;58.00
40992;BME280;29633;49.168;9.848;2023-06-22T11:55:21;96617.72;;;36.03;57.77
40992;BME280;29633;49.168;9.848;2023-06-22T11:57:56;96623.31;;;36.12;57.87
40992;BME280;29633;49.168;9.848;2023-06-22T12:00:25;96623.28;;;36.17;57.49
40992;BME280;29633;49.168;9.848;2023-06-22T12:02:51;96615.09;;;36.22;57.75
40992;BME280;29633;49.168;9.848;2023-06-22T12:05:20;96618.53;;;36.28;57.46
40992;BME280;29633;49.168;9.848;2023-06-22T12:07:46;96614.16;;;36.32;57.33
40992;BME280;29633;49.168;9.848;2023-06-22T12:10:12;96607.38;;;36.34;57.47
40992;BME280;29633;49.168;9.848;2023-06-22T12:12:38;96617.88;;;36.36;57.40
40992;BME280;29633;49.168;9.848;2023-06-22T12:15:04;96613.50;;;36.40;57.11
40992;BME280;29633;49.168;9.848;2023-06-22T12:17:31;96617.00;;;36.40;57.33
40992;BME280;29633;49.168;9.848;2023-06-22T12:19:56;96614.53;;;36.44;57.20
40992;BME280;29633;49.168;9.848;2023-06-22T12:22:22;96613.44;;;36.45;56.98
40992;BME280;29633;49.168;9.848;2023-06-22T12:24:48;96610.22;;;36.43;56.92
40992;BME280;29633;49.168;9.848;2023-06-22T12:27:14;96610.22;;;36.43;56.73
40992;BME280;29633;49.168;9.848;2023-06-22T12:29:44;96613.72;;;36.43;56.84
40992;BME280;29633;49.168;9.848;2023-06-22T12:32:09;96617.00;;;36.40;57.06
40992;BME280;29633;49.168;9.848;2023-06-22T12:34:35;96620.00;;;36.39;56.68
40992;BME280;29633;49.168;9.848;2023-06-22T12:37:00;96621.38;;;36.36;56.89
40992;BME280;29633;49.168;9.848;2023-06-22T12:39:26;96623.84;;;36.33;56.78
40992;BME280;29633;49.168;9.848;2023-06-22T12:41:52;96631.72;;;36.29;56.35
40992;BME280;29633;49.168;9.848;2023-06-22T12:44:17;96632.91;;;36.23;56.42
40992;BME280;29633;49.168;9.848;2023-06-22T12:46:43;96631.00;;;36.24;56.48
40992;BME280;29633;49.168;9.848;2023-06-22T12:49:09;96629.94;;;36.25;56.40
40992;BME280;29633;49.168;9.848;2023-06-22T12:51:39;96624.22;;;36.26;56.33
40992;BME280;29633;49.168;9.848;2023-06-22T12:54:05;96629.63;;;36.26;56.31
40992;BME280;29633;49.168;9.848;2023-06-22T12:56:31;96629.34;;;36.28;56.17
40992;BME280;29633;49.168;9.848;2023-06-22T12:58:57;96625.53;;;36.29;56.05
40992;BME280;29633;49.168;9.848;2023-06-22T13:01:22;96619.63;;;36.27;55.93